createdAt,value
2019-04-25T00:00:01.945Z,9.3
2019-04-25T00:01:01.122Z,9.2
2019-04-25T00:02:01.811Z,9.2
2019-04-25T00:03:01.218Z,9.1
2019-04-25T00:04:01.992Z,9.1
2019-04-25T00:05:01.274Z,9.1
2019-04-25T00:06:02.334Z,9.1
2019-04-25T00:07:02.203Z,9.2
2019-04-25T00:08:01.492Z,9.1
2019-04-25T00:09:01.862Z,9.2
2019-04-25T00:10:01.575Z,9.1
2019-04-25T00:11:01.683Z,9.1
2019-04-25T00:12:02.232Z,9.1
2019-04-25T00:13:01.639Z,9.2
2019-04-25T00:14:01.649Z,9.1
2019-04-25T00:15:01.725Z,9.1
2019-04-25T00:16:01.882Z,9.1
2019-04-25T00:17:01.812Z,9.2
2019-04-25T00:18:02.314Z,9.2
2019-04-25T00:19:01.965Z,9.1
2019-04-25T00:20:01.814Z,9.1
2019-04-25T00:21:01.898Z,9.1
2019-04-25T00:22:02.097Z,9
2019-04-25T00:23:02.098Z,9
2019-04-25T00:24:02.606Z,9.1
2019-04-25T00:25:14.236Z,9.1
2019-04-25T00:26:02.149Z,9.1
2019-04-25T00:27:02.297Z,9.3
2019-04-25T00:28:02.301Z,9.2
2019-04-25T00:29:03.958Z,9.1
2019-04-25T00:30:02.359Z,9
2019-04-25T00:31:02.426Z,8.9
2019-04-25T00:32:02.450Z,9.2
2019-04-25T00:33:02.496Z,9.2
2019-04-25T00:34:02.589Z,9.2
2019-04-25T00:35:02.598Z,9.3
2019-04-25T00:36:03.829Z,9.2
2019-04-25T00:37:02.693Z,9.2
2019-04-25T00:38:02.772Z,9.2
2019-04-25T00:39:02.850Z,9.2
2019-04-25T00:40:02.854Z,9.1
2019-04-25T00:41:02.930Z,9.1
2019-04-25T00:42:02.952Z,9
2019-04-25T00:43:03.050Z,9
2019-04-25T00:44:03.105Z,9.1
2019-04-25T00:45:03.120Z,9.1
2019-04-25T00:46:03.198Z,9.1
2019-04-25T00:47:03.228Z,9
2019-04-25T00:48:04.304Z,9
2019-04-25T00:49:03.395Z,8.9
2019-04-25T00:50:03.436Z,8.9
2019-04-25T00:51:03.472Z,8.9
2019-04-25T00:52:03.527Z,9
2019-04-25T00:53:03.602Z,9
2019-04-25T00:54:03.665Z,9.1
2019-04-25T00:55:03.702Z,9.2
2019-04-25T00:56:03.743Z,9.2
2019-04-25T00:57:03.807Z,9.3
2019-04-25T00:58:03.891Z,9.3
2019-04-25T00:59:03.996Z,9.2
2019-04-25T01:00:03.990Z,9.1
2019-04-25T01:01:04.010Z,9.1
2019-04-25T01:02:04.045Z,9.2
2019-04-25T01:03:04.103Z,9.1
2019-04-25T01:04:04.199Z,9.1
2019-04-25T01:05:04.260Z,9.1
2019-04-25T01:06:04.311Z,8.9
2019-04-25T01:07:04.420Z,8.8
2019-04-25T01:08:04.413Z,8.9
2019-04-25T01:09:04.544Z,9
2019-04-25T01:10:04.526Z,9
2019-04-25T01:11:04.587Z,9
2019-04-25T01:12:04.705Z,8.9
2019-04-25T01:13:04.727Z,8.8
2019-04-25T01:14:04.783Z,8.8
2019-04-25T01:15:04.811Z,9
2019-04-25T01:16:04.871Z,8.9
2019-04-25T01:17:04.965Z,8.8
2019-04-25T01:18:05.021Z,8.8
2019-04-25T01:19:05.115Z,8.8
2019-04-25T01:20:05.115Z,8.8
2019-04-25T01:21:05.184Z,8.8
2019-04-25T01:22:05.199Z,8.9
2019-04-25T01:23:05.277Z,8.8
2019-04-25T01:24:05.351Z,8.8
2019-04-25T01:25:05.504Z,8.7
2019-04-25T01:26:05.452Z,8.7
2019-04-25T01:27:05.527Z,8.7
2019-04-25T01:28:05.586Z,8.8
2019-04-25T01:29:15.145Z,8.8
2019-04-25T01:30:06.097Z,8.9
2019-04-25T01:31:05.732Z,8.9
2019-04-25T01:32:05.812Z,8.8
2019-04-25T01:33:06.155Z,8.8
2019-04-25T01:34:05.934Z,8.8
2019-04-25T01:35:06.009Z,8.8
2019-04-25T01:36:06.020Z,8.7
2019-04-25T01:37:06.125Z,8.7
2019-04-25T01:38:06.190Z,8.8
2019-04-25T01:39:06.301Z,8.9
2019-04-25T01:40:06.294Z,8.9
2019-04-25T01:41:06.364Z,8.7
2019-04-25T01:42:06.584Z,8.8
2019-04-25T01:43:06.535Z,8.7
2019-04-25T01:44:06.529Z,8.7
2019-04-25T01:45:06.613Z,8.7
2019-04-25T01:46:06.631Z,8.7
2019-04-25T01:47:06.687Z,8.6
2019-04-25T01:48:06.777Z,8.6
2019-04-25T01:49:06.815Z,8.7
2019-04-25T01:50:06.875Z,8.8
2019-04-25T01:51:06.923Z,8.8
2019-04-25T01:52:06.999Z,8.8
2019-04-25T01:53:07.036Z,8.8
2019-04-25T01:54:07.082Z,8.8
2019-04-25T01:55:07.187Z,8.9
2019-04-25T01:56:07.894Z,9
2019-04-25T01:57:07.290Z,9
2019-04-25T01:58:07.355Z,9
2019-04-25T01:59:15.578Z,8.8
2019-04-25T02:00:07.463Z,8.8
2019-04-25T02:01:07.525Z,8.9
2019-04-25T02:02:07.565Z,8.9
2019-04-25T02:03:07.601Z,9
2019-04-25T02:04:07.669Z,8.9
2019-04-25T02:05:07.733Z,8.8
2019-04-25T02:06:07.778Z,8.9
2019-04-25T02:07:07.837Z,8.8
2019-04-25T02:08:07.890Z,9
2019-04-25T02:09:07.934Z,8.8
2019-04-25T02:10:08.028Z,8.8
2019-04-25T02:11:08.053Z,8.9
2019-04-25T02:12:08.170Z,8.9
2019-04-25T02:13:08.229Z,8.8
2019-04-25T02:14:08.271Z,8.9
2019-04-25T02:15:08.285Z,8.9
2019-04-25T02:16:08.347Z,9
2019-04-25T02:17:08.561Z,8.8
2019-04-25T02:18:08.443Z,8.8
2019-04-25T02:19:08.520Z,9
2019-04-25T02:20:08.563Z,9
2019-04-25T02:21:08.610Z,9
2019-04-25T02:22:08.688Z,8.9
2019-04-25T02:23:08.737Z,8.9
2019-04-25T02:24:08.789Z,9
2019-04-25T02:25:08.884Z,8.9
2019-04-25T02:26:15.604Z,8.9
2019-04-25T02:27:08.974Z,8.9
2019-04-25T02:28:09.022Z,9
2019-04-25T02:29:17.317Z,9
2019-04-25T02:30:09.152Z,9
2019-04-25T02:31:09.219Z,9.1
2019-04-25T02:32:09.361Z,9
2019-04-25T02:33:09.431Z,9
2019-04-25T02:34:09.355Z,8.9
2019-04-25T02:35:09.960Z,8.9
2019-04-25T02:36:09.515Z,8.8
2019-04-25T02:37:09.784Z,8.9
2019-04-25T02:38:09.611Z,9
2019-04-25T02:39:09.737Z,9
2019-04-25T02:40:09.745Z,9
2019-04-25T02:41:09.815Z,8.9
2019-04-25T02:42:09.834Z,8.8
2019-04-25T02:43:09.920Z,8.8
2019-04-25T02:44:10.273Z,8.9
2019-04-25T02:45:10.090Z,8.8
2019-04-25T02:46:10.117Z,8.7
2019-04-25T02:47:10.145Z,8.7
2019-04-25T02:48:10.206Z,8.7
2019-04-25T02:49:19.684Z,8.8
2019-04-25T02:50:10.361Z,8.8
2019-04-25T02:51:10.436Z,8.9
2019-04-25T02:52:12.997Z,8.9
2019-04-25T02:53:10.509Z,8.9
2019-04-25T02:54:10.569Z,8.9
2019-04-25T02:55:15.987Z,8.8
2019-04-25T02:56:27.215Z,8.8
2019-04-25T02:57:10.749Z,8.8
2019-04-25T02:58:10.800Z,8.7
2019-04-25T02:59:10.877Z,8.8
2019-04-25T03:00:10.929Z,8.8
2019-04-25T03:01:19.087Z,8.7
2019-04-25T03:02:11.001Z,8.7
2019-04-25T03:03:11.062Z,8.8
2019-04-25T03:04:11.517Z,8.8
2019-04-25T03:05:11.235Z,8.7
2019-04-25T03:06:11.290Z,8.6
2019-04-25T03:07:11.635Z,8.6
2019-04-25T03:08:11.441Z,8.6
2019-04-25T03:09:11.433Z,8.5
2019-04-25T03:10:11.506Z,8.6
2019-04-25T03:11:11.554Z,8.7
2019-04-25T03:12:26.323Z,8.9
2019-04-25T03:13:12.482Z,8.9
2019-04-25T03:14:11.767Z,8.8
2019-04-25T03:15:11.808Z,8.8
2019-04-25T03:16:13.676Z,8.7
2019-04-25T03:17:13.969Z,8.7
2019-04-25T03:18:12.898Z,8.7
2019-04-25T03:19:13.979Z,8.8
2019-04-25T03:20:14.562Z,8.8
2019-04-25T03:21:14.702Z,8.7
2019-04-25T03:22:14.795Z,8.6
2019-04-25T03:23:14.141Z,8.7
2019-04-25T03:24:13.777Z,8.6
2019-04-25T03:25:14.416Z,8.6
2019-04-25T03:27:14.107Z,8.6
2019-04-25T03:30:14.600Z,8.6
2019-04-25T03:31:18.456Z,8.6
2019-04-25T03:32:16.264Z,8.6
2019-04-25T03:33:18.232Z,8.7
2019-04-25T03:34:16.670Z,8.6
2019-04-25T03:35:13.538Z,8.6
2019-04-25T03:37:13.786Z,8.6
2019-04-25T03:38:14.476Z,8.5
2019-04-25T03:39:14.797Z,8.6
2019-04-25T03:41:15.031Z,8.6
2019-04-25T03:42:14.081Z,8.6
2019-04-25T03:43:14.945Z,8.7
2019-04-25T03:44:13.928Z,8.6
2019-04-25T03:45:14.585Z,8.5
2019-04-25T03:46:14.226Z,8.5
2019-04-25T03:47:13.642Z,8.6
2019-04-25T03:48:13.994Z,8.6
2019-04-25T03:49:14.030Z,8.6
2019-04-25T03:50:14.068Z,8.6
2019-04-25T03:51:15.630Z,8.5
2019-04-25T03:52:14.294Z,8.6
2019-04-25T03:53:14.070Z,8.6
2019-04-25T03:54:14.226Z,8.6
2019-04-25T03:55:14.454Z,8.5
2019-04-25T03:57:14.602Z,8.6
2019-04-25T03:58:14.596Z,8.5
2019-04-25T03:59:15.960Z,8.5
2019-04-25T04:02:15.188Z,8.4
2019-04-25T04:03:15.214Z,8.4
2019-04-25T04:05:14.866Z,8.5
2019-04-25T04:07:15.843Z,8.4
2019-04-25T04:08:15.716Z,8.4
2019-04-25T04:09:15.205Z,8.5
2019-04-25T04:10:15.509Z,8.5
2019-04-25T04:11:15.631Z,8.5
2019-04-25T04:12:15.711Z,8.5
2019-04-25T04:13:15.825Z,8.4
2019-04-25T04:14:15.750Z,8.3
2019-04-25T04:15:15.954Z,8.4
2019-04-25T04:16:15.714Z,8.2
2019-04-25T04:17:16.044Z,8.4
2019-04-25T04:18:17.212Z,8.4
2019-04-25T04:19:15.808Z,8.3
2019-04-25T04:20:15.968Z,8.3
2019-04-25T04:21:16.131Z,8.4
2019-04-25T04:22:16.245Z,8.3
2019-04-25T04:23:15.548Z,8.4
2019-04-25T04:24:16.049Z,8.4
2019-04-25T04:25:15.939Z,8.4
2019-04-25T04:26:15.767Z,8.5
2019-04-25T04:27:16.680Z,8.5
2019-04-25T04:28:16.028Z,8.5
2019-04-25T04:29:16.467Z,8.6
2019-04-25T04:30:16.482Z,8.5
2019-04-25T04:31:16.580Z,8.4
2019-04-25T04:32:17.061Z,8.4
2019-04-25T04:33:25.646Z,8.5
2019-04-25T04:34:16.977Z,8.6
2019-04-25T04:35:17.404Z,8.7
2019-04-25T04:36:17.654Z,8.6
2019-04-25T04:37:16.702Z,8.7
2019-04-25T04:38:16.527Z,8.6
2019-04-25T04:39:16.767Z,8.6
2019-04-25T04:40:17.583Z,8.5
2019-04-25T04:41:16.576Z,8.4
2019-04-25T04:42:16.619Z,8.4
2019-04-25T04:43:16.654Z,8.4
2019-04-25T04:44:16.717Z,8.6
2019-04-25T04:45:16.763Z,8.7
2019-04-25T04:46:18.503Z,8.7
2019-04-25T04:47:16.889Z,8.7
2019-04-25T04:48:16.938Z,8.6
2019-04-25T04:49:16.994Z,8.7
2019-04-25T04:50:17.059Z,8.8
2019-04-25T04:51:17.236Z,8.7
2019-04-25T04:52:17.188Z,8.8
2019-04-25T04:53:17.274Z,8.9
2019-04-25T04:54:17.273Z,8.8
2019-04-25T04:55:18.622Z,8.8
2019-04-25T04:56:17.597Z,8.9
2019-04-25T04:57:26.907Z,9
2019-04-25T04:58:17.684Z,8.9
2019-04-25T04:59:18.330Z,8.8
2019-04-25T05:00:17.609Z,8.8
2019-04-25T05:01:18.644Z,8.8
2019-04-25T05:02:17.718Z,8.9
2019-04-25T05:03:17.764Z,9.1
2019-04-25T05:04:17.839Z,9.1
2019-04-25T05:05:17.965Z,9.1
2019-04-25T05:06:18.034Z,9.1
2019-04-25T05:07:18.071Z,9
2019-04-25T05:08:18.762Z,9.1
2019-04-25T05:09:18.179Z,9.1
2019-04-25T05:10:19.002Z,8.9
2019-04-25T05:11:19.898Z,9.1
2019-04-25T05:12:18.341Z,9.2
2019-04-25T05:13:18.397Z,9.1
2019-04-25T05:14:19.421Z,9.2
2019-04-25T05:15:19.127Z,9.3
2019-04-25T05:16:19.750Z,9.4
2019-04-25T05:17:19.724Z,9.3
2019-04-25T05:18:31.384Z,9.2
2019-04-25T05:19:18.795Z,9.2
2019-04-25T05:20:18.927Z,9.3
2019-04-25T05:21:20.411Z,9.4
2019-04-25T05:22:18.912Z,9.4
2019-04-25T05:23:19.491Z,9.4
2019-04-25T05:24:19.046Z,9.5
2019-04-25T05:25:20.659Z,9.6
2019-04-25T05:26:19.217Z,9.5
2019-04-25T05:27:34.432Z,9.4
2019-04-25T05:28:19.463Z,9.4
2019-04-25T05:29:21.239Z,9.4
2019-04-25T05:30:19.444Z,9.4
2019-04-25T05:31:21.956Z,9.6
2019-04-25T05:32:19.594Z,9.6
2019-04-25T05:33:21.232Z,9.5
2019-04-25T05:34:19.801Z,9.5
2019-04-25T05:35:20.253Z,9.5
2019-04-25T05:36:19.783Z,9.5
2019-04-25T05:37:20.140Z,9.5
2019-04-25T05:38:20.137Z,9.6
2019-04-25T05:39:20.341Z,9.6
2019-04-25T05:40:22.093Z,9.6
2019-04-25T05:41:20.682Z,9.7
2019-04-25T05:42:20.789Z,9.7
2019-04-25T05:43:21.174Z,9.7
2019-04-25T05:44:21.334Z,9.8
2019-04-25T05:45:21.238Z,9.7
2019-04-25T05:46:21.091Z,9.8
2019-04-25T05:47:25.261Z,9.7
2019-04-25T05:48:21.153Z,9.8
2019-04-25T05:49:21.306Z,9.8
2019-04-25T05:50:22.355Z,9.8
2019-04-25T05:51:23.560Z,9.8
2019-04-25T05:52:23.922Z,10
2019-04-25T05:53:23.766Z,10.1
2019-04-25T05:54:22.962Z,10.1
2019-04-25T05:55:24.109Z,10.1
2019-04-25T05:56:24.616Z,10.2
2019-04-25T05:57:23.877Z,10.4
2019-04-25T05:58:24.767Z,10.4
2019-04-25T05:59:25.516Z,10.5
2019-04-25T06:00:24.765Z,10.4
2019-04-25T06:01:24.907Z,10.4
2019-04-25T06:02:22.104Z,10.5
2019-04-25T06:03:21.622Z,10.5
2019-04-25T06:04:24.935Z,10.6
2019-04-25T06:05:23.327Z,10.6
2019-04-25T06:06:24.483Z,10.5
2019-04-25T06:07:25.282Z,10.5
2019-04-25T06:08:24.022Z,10.5
2019-04-25T06:09:25.268Z,10.5
2019-04-25T06:10:21.732Z,10.5
2019-04-25T06:11:23.528Z,10.4
2019-04-25T06:12:23.660Z,10.3
2019-04-25T06:13:23.813Z,10.3
2019-04-25T06:14:23.656Z,10.3
2019-04-25T06:15:23.703Z,10.3
2019-04-25T06:16:23.684Z,10.3
2019-04-25T06:17:24.559Z,10.4
2019-04-25T06:18:23.861Z,10.4
2019-04-25T06:19:24.182Z,10.4
2019-04-25T06:20:23.517Z,10.5
2019-04-25T06:21:23.534Z,10.5
2019-04-25T06:22:24.194Z,10.7
2019-04-25T06:23:22.875Z,10.7
2019-04-25T06:24:24.336Z,10.8
2019-04-25T06:26:33.258Z,10.7
2019-04-25T06:27:24.250Z,10.7
2019-04-25T06:28:23.916Z,10.7
2019-04-25T06:29:23.898Z,10.8
2019-04-25T06:30:24.517Z,10.7
2019-04-25T06:31:23.778Z,10.7
2019-04-25T06:32:24.575Z,10.7
2019-04-25T06:33:24.587Z,10.8
2019-04-25T06:34:24.883Z,10.8
2019-04-25T06:35:25.093Z,10.8
2019-04-25T06:36:24.509Z,10.9
2019-04-25T06:37:24.868Z,10.9
2019-04-25T06:38:25.988Z,10.9
2019-04-25T06:39:24.325Z,11
2019-04-25T06:40:24.123Z,10.9
2019-04-25T06:41:25.584Z,27.5
2019-04-25T06:42:24.755Z,11
2019-04-25T06:43:24.508Z,11
2019-04-25T06:44:24.317Z,11
2019-04-25T06:45:25.212Z,11.1
2019-04-25T06:46:24.837Z,11.1
2019-04-25T06:47:24.762Z,11
2019-04-25T06:48:26.207Z,11.1
2019-04-25T06:49:25.423Z,11
2019-04-25T06:50:24.817Z,11.1
2019-04-25T06:51:25.635Z,11.1
2019-04-25T06:52:27.988Z,11.2
2019-04-25T06:53:25.478Z,11.2
2019-04-25T06:54:25.646Z,11.2
2019-04-25T06:55:25.949Z,11.2
2019-04-25T06:56:25.208Z,11.2
2019-04-25T06:57:26.691Z,11.2
2019-04-25T06:58:26.002Z,11.2
2019-04-25T06:59:26.092Z,11.2
2019-04-25T07:00:27.246Z,11.2
2019-04-25T07:01:26.703Z,11.2
2019-04-25T07:02:25.378Z,11.3
2019-04-25T07:03:25.171Z,11.3
2019-04-25T07:04:25.434Z,11.3
2019-04-25T07:05:31.358Z,11.3
2019-04-25T07:06:25.284Z,11.3
2019-04-25T07:07:26.860Z,11.3
2019-04-25T07:08:26.936Z,11.3
2019-04-25T07:09:28.381Z,11.3
2019-04-25T07:10:27.501Z,11.3
2019-04-25T07:11:26.980Z,11.4
2019-04-25T07:12:29.234Z,11.4
2019-04-25T07:13:26.951Z,11.3
2019-04-25T07:14:27.975Z,11.4
2019-04-25T07:15:27.854Z,11.4
2019-04-25T07:16:27.263Z,11.4
2019-04-25T07:17:26.967Z,11.5
2019-04-25T07:18:30.462Z,11.5
2019-04-25T07:19:28.330Z,11.7
2019-04-25T07:20:28.246Z,11.7
2019-04-25T07:21:28.063Z,11.7
2019-04-25T07:22:27.211Z,11.8
2019-04-25T07:23:27.304Z,28.1
2019-04-25T07:24:27.379Z,20.2
2019-04-25T07:25:28.499Z,12.1
2019-04-25T07:26:28.199Z,12.1
2019-04-25T07:27:28.347Z,12.2
2019-04-25T07:28:29.673Z,12.2
2019-04-25T07:29:28.358Z,12.1
2019-04-25T07:30:39.984Z,12.1
2019-04-25T07:31:29.139Z,12.1
2019-04-25T07:32:30.009Z,12.1
2019-04-25T07:33:28.170Z,12.2
2019-04-25T07:34:28.860Z,12.3
2019-04-25T07:35:27.937Z,12.3
2019-04-25T07:36:28.206Z,12.4
2019-04-25T07:37:28.075Z,12.4
2019-04-25T07:38:28.993Z,12.5
2019-04-25T07:39:28.173Z,12.5
2019-04-25T07:40:28.263Z,12.5
2019-04-25T07:41:29.288Z,12.6
2019-04-25T07:42:28.333Z,12.7
2019-04-25T07:43:28.402Z,12.8
2019-04-25T07:44:37.069Z,12.8
2019-04-25T07:45:30.783Z,12.8
2019-04-25T07:46:28.692Z,12.8
2019-04-25T07:47:29.251Z,12.8
2019-04-25T07:48:28.697Z,13
2019-04-25T07:49:28.776Z,29
2019-04-25T07:50:28.854Z,13.1
2019-04-25T07:51:28.870Z,13
2019-04-25T07:52:29.041Z,13
2019-04-25T07:53:30.277Z,12.9
2019-04-25T07:54:29.149Z,12.8
2019-04-25T07:55:29.243Z,12.8
2019-04-25T07:56:29.397Z,12.8
2019-04-25T07:57:29.273Z,12.7
2019-04-25T07:58:39.501Z,12.7
2019-04-25T07:59:29.428Z,12.7
2019-04-25T08:00:29.712Z,12.6
2019-04-25T08:01:31.063Z,12.6
2019-04-25T08:02:29.725Z,12.7
2019-04-25T08:03:30.024Z,12.6
2019-04-25T08:04:29.678Z,12.6
2019-04-25T08:05:35.336Z,12.5
2019-04-25T08:05:35.336Z,12.6
2019-04-25T08:06:37.664Z,12.5
2019-04-25T08:07:29.906Z,12.5
2019-04-25T08:08:29.971Z,12.4
2019-04-25T08:09:30.008Z,12.4
2019-04-25T08:10:30.078Z,12.4
2019-04-25T08:11:30.087Z,12.5
2019-04-25T08:12:30.484Z,12.5
2019-04-25T08:13:30.193Z,12.5
2019-04-25T08:14:30.274Z,12.4
2019-04-25T08:15:30.298Z,12.4
2019-04-25T08:16:31.065Z,12.4
2019-04-25T08:17:30.538Z,12.4
2019-04-25T08:18:30.474Z,12.5
2019-04-25T08:19:31.040Z,12.5
2019-04-25T08:20:30.616Z,12.6
2019-04-25T08:21:30.722Z,12.6
2019-04-25T08:22:30.700Z,12.6
2019-04-25T08:23:32.374Z,12.7
2019-04-25T08:24:30.857Z,12.8
2019-04-25T08:25:30.876Z,12.8
2019-04-25T08:26:31.201Z,12.9
2019-04-25T08:27:31.149Z,12.9
2019-04-25T08:28:32.389Z,13
2019-04-25T08:29:31.798Z,13
2019-04-25T08:30:31.385Z,13
2019-04-25T08:31:31.322Z,13
2019-04-25T08:32:31.319Z,13
2019-04-25T08:33:32.535Z,13.1
2019-04-25T08:34:32.774Z,13.1
2019-04-25T08:35:31.683Z,13.3
2019-04-25T08:36:33.720Z,13.4
2019-04-25T08:37:31.778Z,13.5
2019-04-25T08:38:34.484Z,13.6
2019-04-25T08:39:31.858Z,13.6
2019-04-25T08:40:32.951Z,13.7
2019-04-25T08:41:32.782Z,13.8
2019-04-25T08:42:32.672Z,14
2019-04-25T08:43:32.486Z,14.2
2019-04-25T08:44:32.996Z,14.3
2019-04-25T08:45:33.493Z,14.6
2019-04-25T08:46:33.710Z,14.6
2019-04-25T08:47:33.194Z,14.5
2019-04-25T08:48:34.319Z,14.5
2019-04-25T08:49:34.490Z,14.5
2019-04-25T08:50:34.728Z,14.3
2019-04-25T08:51:34.785Z,14.3
2019-04-25T08:52:34.788Z,14.3
2019-04-25T08:53:34.331Z,14.3
2019-04-25T08:54:34.430Z,14.5
2019-04-25T08:55:34.885Z,14.5
2019-04-25T08:56:34.929Z,14.5
2019-04-25T08:57:34.089Z,14.3
2019-04-25T08:58:35.120Z,14.3
2019-04-25T08:59:39.999Z,14.3
2019-04-25T09:00:34.865Z,14.2
2019-04-25T09:01:34.839Z,14.2
2019-04-25T09:02:35.787Z,14.1
2019-04-25T09:03:34.654Z,14
2019-04-25T09:04:34.746Z,14
2019-04-25T09:05:35.216Z,14
2019-04-25T09:06:35.048Z,13.9
2019-04-25T09:07:35.302Z,13.8
2019-04-25T09:08:35.912Z,13.8
2019-04-25T09:09:35.281Z,13.8
2019-04-25T09:10:35.693Z,13.9
2019-04-25T09:11:36.353Z,13.9
2019-04-25T09:12:35.474Z,13.9
2019-04-25T09:13:35.753Z,13.8
2019-04-25T09:14:35.467Z,13.8
2019-04-25T09:15:35.709Z,13.8
2019-04-25T09:16:35.391Z,13.8
2019-04-25T09:17:35.778Z,13.8
2019-04-25T09:18:36.001Z,13.8
2019-04-25T09:19:36.165Z,13.8
2019-04-25T09:20:37.947Z,13.8
2019-04-25T09:21:34.627Z,13.8
2019-04-25T09:22:36.428Z,13.8
2019-04-25T09:23:35.449Z,13.8
2019-04-25T09:24:36.634Z,13.8
2019-04-25T09:25:35.423Z,13.8
2019-04-25T09:26:35.913Z,13.8
2019-04-25T09:27:35.240Z,13.8
2019-04-25T09:28:37.534Z,13.8
2019-04-25T09:29:35.640Z,13.8
2019-04-25T09:30:35.780Z,13.8
2019-04-25T09:31:37.449Z,13.7
2019-04-25T09:32:35.621Z,13.7
2019-04-25T09:33:36.022Z,13.8
2019-04-25T09:34:35.563Z,13.8
2019-04-25T10:00:44.501Z,17.2
2019-04-25T10:01:36.583Z,17
2019-04-25T10:02:36.894Z,17
2019-04-25T10:03:36.677Z,32.3
2019-04-25T10:04:36.896Z,17.4
2019-04-25T10:05:37.021Z,17.6
2019-04-25T10:06:37.300Z,25
2019-04-25T10:07:37.248Z,17.4
2019-04-25T10:08:37.001Z,17.3
2019-04-25T10:09:36.878Z,17.2
2019-04-25T10:10:37.993Z,17
2019-04-25T10:11:38.182Z,16.8
2019-04-25T10:12:37.342Z,16.6
2019-04-25T10:13:37.572Z,16.5
2019-04-25T10:14:37.633Z,16.6
2019-04-25T10:15:37.506Z,16.8
2019-04-25T10:16:37.929Z,17
2019-04-25T10:17:37.757Z,17.1
2019-04-25T10:18:37.882Z,17.2
2019-04-25T10:19:37.765Z,17.5
2019-04-25T10:20:37.958Z,17.5
2019-04-25T10:21:38.352Z,17.7
2019-04-25T10:22:37.944Z,18
2019-04-25T10:23:38.311Z,18
2019-04-25T10:24:39.637Z,17.8
2019-04-25T10:25:38.116Z,17.6
2019-04-25T10:26:38.929Z,17.6
2019-04-25T10:27:38.277Z,17.6
2019-04-25T10:28:38.709Z,17.9
2019-04-25T10:29:42.142Z,18
2019-04-25T10:30:39.402Z,18.1
2019-04-25T10:31:38.226Z,33.1
2019-04-25T10:32:38.241Z,18.5
2019-04-25T10:33:38.702Z,33.3
2019-04-25T10:34:38.278Z,18.6
2019-04-25T10:35:47.072Z,18.7
2019-04-25T10:36:39.845Z,18.7
2019-04-25T10:37:38.887Z,18.5
2019-04-25T10:38:39.338Z,18.2
2019-04-25T10:39:39.146Z,18.1
2019-04-25T10:40:39.335Z,18.2
2019-04-25T10:41:40.127Z,18.1
2019-04-25T10:42:39.027Z,18.1
2019-04-25T10:43:39.497Z,18.3
2019-04-25T10:44:39.229Z,18
2019-04-25T10:45:39.760Z,18
2019-04-25T10:46:39.353Z,17.9
2019-04-25T10:47:40.062Z,17.6
2019-04-25T10:48:39.944Z,17.7
2019-04-25T10:49:39.790Z,17.6
2019-04-25T10:50:40.115Z,17.8
2019-04-25T10:51:39.882Z,17.9
2019-04-25T10:52:39.755Z,17.8
2019-04-25T10:53:39.287Z,17.5
2019-04-25T10:54:39.819Z,17.4
2019-04-25T10:55:39.394Z,17.6
2019-04-25T10:56:40.136Z,17.9
2019-04-25T10:57:39.487Z,25.6
2019-04-25T10:58:40.167Z,18.4
2019-04-25T10:59:52.132Z,18.7
2019-04-25T11:00:40.637Z,18.9
2019-04-25T11:01:40.271Z,18.9
2019-04-25T11:02:40.941Z,18.9
2019-04-25T11:03:40.726Z,18.6
2019-04-25T11:04:40.908Z,18.6
2019-04-25T11:05:40.522Z,19.1
2019-04-25T11:06:40.833Z,19.3
2019-04-25T11:07:40.643Z,19.2
2019-04-25T11:08:40.450Z,19.3
2019-04-25T11:09:41.494Z,19
2019-04-25T11:10:40.577Z,18.8
2019-04-25T11:11:40.715Z,18.7
2019-04-25T11:12:41.349Z,19
2019-04-25T11:13:40.931Z,33.8
2019-04-25T11:14:40.914Z,19.5
2019-04-25T11:15:40.514Z,19.6
2019-04-25T11:16:40.527Z,19.3
2019-04-25T11:17:40.514Z,19.2
2019-04-25T11:18:40.916Z,19.1
2019-04-25T11:19:41.031Z,19
2019-04-25T11:20:41.052Z,19.2
2019-04-25T11:21:41.255Z,19.2
2019-04-25T11:22:40.934Z,19.2
2019-04-25T11:23:41.392Z,19.3
2019-04-25T11:24:41.504Z,18.8
2019-04-25T11:25:41.505Z,18.6
2019-04-25T11:26:41.521Z,18.3
2019-04-25T11:27:42.408Z,18.2
2019-04-25T11:28:42.464Z,18.1
2019-04-25T11:29:41.610Z,18.2
2019-04-25T11:30:44.018Z,18.1
2019-04-25T11:31:41.358Z,17.9
2019-04-25T11:32:42.146Z,17.8
2019-04-25T11:33:43.811Z,17.7
2019-04-25T11:34:43.131Z,17.7
2019-04-25T11:35:42.426Z,17.8
2019-04-25T11:36:41.794Z,17.8
2019-04-25T11:37:43.194Z,17.8
2019-04-25T11:38:43.543Z,32.6
2019-04-25T11:39:43.272Z,17.7
2019-04-25T11:40:46.507Z,17.7
2019-04-25T11:41:43.081Z,17.6
2019-04-25T11:42:45.698Z,17.6
2019-04-25T11:43:45.420Z,17.6
2019-04-25T11:44:45.415Z,17.6
2019-04-25T11:45:43.709Z,17.5
2019-04-25T11:46:45.299Z,17.6
2019-04-25T11:47:45.903Z,17.6
2019-04-25T11:48:45.086Z,17.5
2019-04-25T11:49:46.290Z,17.4
2019-04-25T11:50:48.828Z,17.5
2019-04-25T11:51:46.016Z,17.5
2019-04-25T11:52:43.690Z,17.5
2019-04-25T11:53:46.352Z,17.5
2019-04-25T11:54:46.716Z,17.6
2019-04-25T11:55:43.573Z,17.6
2019-04-25T11:56:47.305Z,17.7
2019-04-25T11:57:49.018Z,17.7
2019-04-25T11:58:47.540Z,17.8
2019-04-25T11:59:47.920Z,17.8
2019-04-25T12:00:45.044Z,17.8
2019-04-25T12:01:45.288Z,18
2019-04-25T12:02:44.010Z,18.1
2019-04-25T12:03:45.331Z,18.1
2019-04-25T12:04:45.413Z,18.1
2019-04-25T12:05:45.766Z,18
2019-04-25T12:06:45.983Z,17.9
2019-04-25T12:07:44.686Z,17.9
2019-04-25T12:08:46.418Z,17.8
2019-04-25T12:09:45.747Z,17.9
2019-04-25T12:10:45.717Z,17.9
2019-04-25T12:11:45.696Z,17.9
2019-04-25T12:12:46.106Z,17.9
2019-04-25T12:13:45.844Z,17.9
2019-04-25T12:14:45.041Z,17.9
2019-04-25T12:15:45.995Z,17.9
2019-04-25T12:16:47.581Z,17.9
2019-04-25T12:17:44.819Z,17.9
2019-04-25T12:18:47.543Z,17.9
2019-04-25T12:19:43.989Z,17.9
2019-04-25T12:20:46.174Z,18
2019-04-25T12:21:44.672Z,17.9
2019-04-25T12:22:45.372Z,17.9
2019-04-25T12:23:46.321Z,17.9
2019-04-25T12:24:45.359Z,17.8
2019-04-25T12:25:46.230Z,17.8
2019-04-25T12:26:46.366Z,17.8
2019-04-25T12:27:48.061Z,17.9
2019-04-25T12:28:44.967Z,18
2019-04-25T12:29:45.839Z,18
2019-04-25T12:30:45.791Z,18.1
2019-04-25T12:31:46.354Z,18.1
2019-04-25T12:32:45.720Z,18.1
2019-04-25T12:33:46.285Z,18.2
2019-04-25T12:34:45.758Z,18.2
2019-04-25T12:35:44.961Z,18.3
2019-04-25T12:36:45.028Z,18.3
2019-04-25T12:37:45.073Z,18.3
2019-04-25T12:38:46.092Z,18.2
2019-04-25T12:39:46.075Z,18.2
2019-04-25T12:40:46.109Z,18.2
2019-04-25T12:41:46.094Z,18.2
2019-04-25T12:42:46.240Z,18.3
2019-04-25T12:43:45.761Z,18.3
2019-04-25T12:44:47.297Z,18.3
2019-04-25T12:45:45.799Z,18.5
2019-04-25T12:46:48.489Z,18.4
2019-04-25T12:47:46.407Z,18.5
2019-04-25T12:48:46.021Z,18.5
2019-04-25T12:49:46.700Z,18.6
2019-04-25T12:50:46.338Z,18.5
2019-04-25T12:51:46.504Z,18.6
2019-04-25T12:52:46.570Z,18.6
2019-04-25T12:53:46.572Z,18.7
2019-04-25T12:54:47.430Z,18.8
2019-04-25T12:55:47.343Z,18.8
2019-04-25T12:56:47.685Z,18.9
2019-04-25T12:57:47.103Z,19
2019-04-25T12:58:47.851Z,19.2
2019-04-25T12:59:47.345Z,19.5
2019-04-25T13:00:48.540Z,20
2019-04-25T13:01:46.458Z,34.7
2019-04-25T13:02:46.500Z,20.6
2019-04-25T13:03:47.962Z,20.8
2019-04-25T13:04:47.617Z,21
2019-04-25T13:05:47.281Z,20.9
2019-04-25T13:06:48.683Z,20.6
2019-04-25T13:07:46.834Z,27.6
2019-04-25T13:08:46.894Z,20.3
2019-04-25T13:09:48.036Z,20
2019-04-25T13:10:46.998Z,19.6
2019-04-25T13:11:47.054Z,19.5
2019-04-25T13:12:47.237Z,19.4
2019-04-25T13:13:47.203Z,19.5
2019-04-25T13:14:47.369Z,19.6
2019-04-25T13:15:47.301Z,19.7
2019-04-25T13:16:47.352Z,19.8
2019-04-25T13:17:47.420Z,19.7
2019-04-25T13:18:47.437Z,19.6
2019-04-25T13:19:47.565Z,19.6
2019-04-25T13:20:47.816Z,19.6
2019-04-25T13:21:47.755Z,19.5
2019-04-25T13:22:48.100Z,19.5
2019-04-25T13:23:48.066Z,19.5
2019-04-25T13:24:48.074Z,19.5
2019-04-25T13:25:48.374Z,19.7
2019-04-25T13:26:48.098Z,19.7
2019-04-25T13:27:47.960Z,19.6
2019-04-25T13:28:48.040Z,34.2
2019-04-25T13:29:48.106Z,19.6
2019-04-25T13:30:59.781Z,19.8
2019-04-25T13:31:48.314Z,20.4
2019-04-25T13:32:48.301Z,20.8
2019-04-25T13:33:48.385Z,21
2019-04-25T13:34:48.405Z,21.1
2019-04-25T13:35:48.517Z,21.3
2019-04-25T13:36:48.572Z,21.3
2019-04-25T13:37:48.615Z,21.2
2019-04-25T13:38:48.647Z,21.2
2019-04-25T13:39:48.703Z,21.1
2019-04-25T13:40:48.784Z,21
2019-04-25T13:41:48.837Z,21
2019-04-25T13:42:48.917Z,21
2019-04-25T13:43:48.923Z,21.4
2019-04-25T13:44:49.073Z,28.7
2019-04-25T13:45:49.065Z,21.6
2019-04-25T13:46:49.274Z,21.6
2019-04-25T13:47:49.684Z,21.6
2019-04-25T13:48:49.246Z,21.3
2019-04-25T13:49:49.279Z,21.1
2019-04-25T13:50:49.733Z,20.6
2019-04-25T13:51:49.704Z,20.2
2019-04-25T13:52:50.619Z,20.1
2019-04-25T13:53:49.511Z,20.1
2019-04-25T13:54:49.882Z,20.3
2019-04-25T13:55:49.954Z,20.1
2019-04-25T13:56:53.356Z,20.1
2019-04-25T13:57:49.855Z,20.2
2019-04-25T13:58:50.339Z,20.3
2019-04-25T13:59:49.884Z,20.3
2019-04-25T14:00:52.397Z,20.1
2019-04-25T14:01:51.834Z,20.1
2019-04-25T14:02:50.281Z,20.3
2019-04-25T14:03:50.294Z,20.5
2019-04-25T14:04:50.475Z,20.6
2019-04-25T14:05:50.399Z,20.8
2019-04-25T14:06:50.289Z,21.1
2019-04-25T14:07:50.395Z,21.5
2019-04-25T14:08:50.494Z,21.6
2019-04-25T14:09:50.662Z,21.6
2019-04-25T14:10:50.854Z,21.6